• Join FlightAware (Why Join?)
  • Login
  • US Flag 
02:26AM EDT


 

Airport Tracker/Info


-or-


 

Live Flight TrackerFlight Track Log ✈ N292P ✈ 06-Jul-2013 ✈ KSEZ - KVGT

Flight Track Log - Related Links

Times and Time Zones

All times are in EDT time to prevent confusion due to time zone crossing. See the N292P flight status page for this flight to view local times or setup timezone preferences in your user account.

Time Position Orientation Groundspeed Altitude Reporting Facility
EDT Latitude Longitude Course Direction KTS MPH feet Rate Location/Type
03:22PM 34.8956 -111.9417 297° West 148 170 10,400  Level Los Angeles Center
03:23PM 34.9156 -111.9886 297° West 155 178 12,500 1,620 Climbing Los Angeles Center
03:24PM 34.9333 -112.0286 298° West 148 170 13,800 1,440 Climbing Los Angeles Center
03:25PM 34.9578 -112.0844 298° West 156 180 15,500 1,440 Climbing Los Angeles Center
03:26PM 34.9800 -112.1311 300° West 159 183 16,800 1,320 Climbing Los Angeles Center
03:27PM 35.0069 -112.1897 299° West 166 191 18,300 1,200 Climbing Los Angeles Center
03:28PM 35.0294 -112.2386 299° West 167 192 19,400 1,080 Climbing Los Angeles Center
03:29PM 35.0525 -112.2883 300° West 170 196 20,600 1,020 Climbing Los Angeles Center
03:30PM 35.0758 -112.3389 299° West 171 197 21,600 960 Climbing Los Angeles Center
03:31PM 35.0950 -112.3914 294° West 171 197 22,600 900 Climbing Los Angeles Center
03:32PM 35.1164 -112.4433 297° West 172 198 23,500 660 Climbing Los Angeles Center
03:33PM 35.1442 -112.5092 297° West 184 212 24,000 180 Climbing Los Angeles Center
03:34PM 35.1689 -112.5775 294° West 209 241 24,000  Level Albuquerque Center
03:35PM 35.1942 -112.6547 292° West 236 272 24,000  Level Albuquerque Center
03:36PM 35.2144 -112.7369 287° West 251 289 24,000  Level Albuquerque Center
03:37PM 35.2292 -112.8206 282° West 257 296 24,000  Level Albuquerque Center
03:38PM 35.2714 -112.9025 302° West 262 302 24,000  Level Los Angeles Center
03:39PM 35.3103 -112.9789 302° West 272 313 24,000  Level Los Angeles Center
03:40PM 35.3631 -113.0656 307° West 265 305 24,000  Level Los Angeles Center
03:41PM 35.4061 -113.1422 305° West 269 310 24,000 -60 Level Los Angeles Center
03:42PM 35.4478 -113.2194 304° West 271 312 23,900 -420 Descending Los Angeles Center
03:43PM 35.4914 -113.2986 304° West 278 320 23,200 -840 Descending Los Angeles Center
03:44PM 35.5336 -113.3778 303° West 281 323 22,200 -960 Descending Los Angeles Center
03:46PM 35.5719 -113.4644 299° West 286 329 21,300 -960 Descending Los Angeles Center
03:47PM 35.6144 -113.5542 300° West 301 346 20,300 -1,080 Descending Los Angeles Center
03:48PM 35.6761 -113.6531 308° West 305 351 19,200 -1,080 Descending Los Angeles Center
03:49PM 35.7283 -113.7419 306° West 310 357 18,200 -1,020 Descending Los Angeles Center
03:50PM 35.7769 -113.8244 306° West 299 344 17,100 -1,020 Descending Los Angeles Center
03:51PM 35.8264 -113.9078 306° West 301 346 16,100 -900 Descending Los Angeles Center
03:52PM 35.8722 -113.9864 306° West 301 346 15,300 -840 Descending Los Angeles Center
03:53PM 35.9236 -114.0742 306° West 304 350 14,200 -1,020 Descending Los Angeles Center
03:54PM 35.9811 -114.1731 306° West 296 341 13,100 -1,020 Descending Los Angeles Center
03:55PM 36.0342 -114.2625 306° West 272 313 11,900 -1,080 Descending Los Angeles Center
03:56PM 36.0833 -114.3489 305° West 257 296 10,700 -1,080 Descending Los Angeles Center
03:57PM 36.1261 -114.4242 305° West 261 300 9,800 -840 Descending Los Angeles Center
03:58PM 36.1675 -114.5036 303° West 258 297 9,100 -360 Descending Los Angeles Center
03:59PM 36.1858 -114.5853 286° West 232 267 9,100  Level Los Angeles Center
04:00PM 36.1975 -114.6481 283° West 228 262 9,100 -180 Level Los Angeles Center
04:01PM 36.2136 -114.7308 284° West 229 264 8,800 -600 Descending Los Angeles Center
04:02PM 36.2311 -114.8103 285° West 237 273 7,900 -900 Descending Los Angeles Center
04:03PM 36.2461 -114.8881 283° West 228 262 7,000 -960 Descending Los Angeles Center
04:04PM 36.2447 -114.9606 269° West 209 241 6,000 -1,080 Descending Los Angeles Center
04:05PM 36.2378 -115.0375 264° West 212 244 4,900 -1,080 Descending Los Angeles Center
04:06PM 36.2333 -115.1164 266° West 206 237 3,800 -840 Descending Los Angeles Center
04:07PM 36.2372 -115.1736 275° West 183 211 3,200 -600 Descending Los Angeles Center
04:08PM 36.2331 -115.2150 263° West 136 157 2,700 -360 Descending Los Angeles Center
04:10PM 36.1925 -115.1936 157° South 149 171 2,400 -240 Descending Los Angeles Center
04:12PM 36.2000 -115.1833 North  Level FlightAware Approximate
04:19PM 36.2107 -115.1944 North  Level Estimated